Você está realizando uma questão de Piloto Privado de Avião - Meteorologia.

No TAF SBFL 040900Z 0412/0512 18006KT 9999 BKN025 TEMPO 0412/0418 5000 RA TX26/0418Z TN22/0509Z, previu-se:

Você acertou a questão!

A resposta correta é a letra B

Explicação da resposta correta:

No código TAF "SBFL 040900Z 0412/0512 18006KT 9999 BKN025 TEMPO 0412/0418 5000 RA TX26/0418Z TN22/0509Z", a parte "TEMPO 0412/0418 5000 RA" indica que há previsão de chuva moderada (RA) durante um período limitado de tempo. O termo "TEMPO" no TAF se refere a uma condição temporária, ou seja, uma mudança nas condições meteorológicas que se espera que dure por menos de uma hora em cada período indicado. No caso específico, está prevista chuva moderada entre as 1200 UTC e as 1800 UTC (horário universal coordenado), o que significa que a chuva deve ocorrer durante este período específico.

OPS...

Parece que você ainda não possui nenhum plano de assinatura conosco. Não perca tempo! Assine agora um dos nossos planos para ter acesso imediato às respostas. Adquira já!

plugins premium WordPress